»·PEaware :: N421WF KSAN-92CA

N421WF :: KSAN-92CA

FLIGHT INFORMATION

Flight Status: Arrived
Operator: Privately registered:
United States
More flights under this callsign
Pilot: Mike D. (13097)
Aircraft: BEECH AIRCRAFT SUPER KING AIR 350
(B350)
More flights by this aircraft type
Origin: KSAN San Diego Intl-Lindbergh
United States
Destination: 92CA Westlake Farms
United States
More flights between these airports :: More routes between these airports
Route: +PEBLE6 SLI V459 LHS T259 EHF DIRECT
File this flight plan on PilotEdge
Remarks:
Altitude:
(Current/Filed)
18,000ft
Speed:
(Current/Filed)
240kts
Departed: 07-Dec-17 09:46 AM
Arrived: 07-Dec-17 11:02 AM
Distance/Time
Traveled:
243nm/1:16
Distance/Time
To Go:
Arrived

Flight Plot

Page will automatically refresh every two minutes.

Flight plan parsing failed; only flown route is shown


Map Options




Map Legend


Flown Route
Filed Route
Departure Airport
Arrival Airport
Navaid (VOR, NDB)
Fix

Horizontal Profiles

Position Reports

Time Latitude Longitude Heading Altitude Ground
Speed
07-Dec-17 09:01 32.732415 -117.176543 12 19ft 0kts
07-Dec-17 09:02 32.732415 -117.176543 12 19ft 0kts
07-Dec-17 09:03 32.732415 -117.176543 12 19ft 0kts
07-Dec-17 09:04 32.732415 -117.176543 12 19ft 0kts
07-Dec-17 09:05 32.732415 -117.176543 12 19ft 0kts
07-Dec-17 09:06 32.732415 -117.176543 12 19ft 0kts
07-Dec-17 09:07 32.732415 -117.176543 12 19ft 0kts
07-Dec-17 09:08 32.732415 -117.176543 12 19ft 0kts
07-Dec-17 09:09 32.732416 -117.176543 12 19ft 0kts
07-Dec-17 09:10 32.732417 -117.176542 12 19ft 0kts
07-Dec-17 09:11 32.732418 -117.176542 12 19ft 0kts
07-Dec-17 09:12 32.732420 -117.176542 12 19ft 0kts
07-Dec-17 09:13 32.732421 -117.176541 12 19ft 0kts
07-Dec-17 09:14 32.732422 -117.176541 12 19ft 0kts
07-Dec-17 09:15 32.732423 -117.176541 12 19ft 0kts
07-Dec-17 09:16 32.732424 -117.176541 12 19ft 0kts
07-Dec-17 09:17 32.732425 -117.176540 12 19ft 0kts
07-Dec-17 09:18 32.732426 -117.176540 12 19ft 0kts
07-Dec-17 09:19 32.732427 -117.176540 12 19ft 0kts
07-Dec-17 09:20 32.732373 -117.176554 12 19ft 0kts
07-Dec-17 09:21 32.732374 -117.176554 12 19ft 0kts
07-Dec-17 09:22 32.732375 -117.176553 12 19ft 0kts
07-Dec-17 09:23 32.732377 -117.176553 12 19ft 0kts
07-Dec-17 09:24 32.732378 -117.176553 12 19ft 0kts
07-Dec-17 09:25 32.732379 -117.176553 12 19ft 0kts
07-Dec-17 09:26 32.732380 -117.176552 12 19ft 0kts
07-Dec-17 09:28 32.732381 -117.176552 12 19ft 0kts
07-Dec-17 09:29 32.732382 -117.176552 12 19ft 0kts
07-Dec-17 09:30 32.732383 -117.176551 12 19ft 0kts
07-Dec-17 09:31 32.732384 -117.176551 12 19ft 0kts
07-Dec-17 09:32 32.732385 -117.176551 12 19ft 0kts
07-Dec-17 09:33 32.732386 -117.176551 12 19ft 0kts
07-Dec-17 09:34 32.732387 -117.176550 12 19ft 0kts
07-Dec-17 09:35 32.732388 -117.176550 12 19ft 0kts
07-Dec-17 09:36 32.732389 -117.176550 12 19ft 0kts
07-Dec-17 09:37 32.732390 -117.176549 12 19ft 0kts
07-Dec-17 09:38 32.732391 -117.176549 12 19ft 0kts
07-Dec-17 09:39 32.732392 -117.176549 12 19ft 0kts
07-Dec-17 09:40 32.732393 -117.176549 12 19ft 0kts
07-Dec-17 09:41 32.732394 -117.176549 12 19ft 0kts
07-Dec-17 09:41 32.732395 -117.176548 12 19ft 0kts
07-Dec-17 09:43 32.732396 -117.176548 12 19ft 0kts
07-Dec-17 09:44 32.732397 -117.176548 12 19ft 0kts
07-Dec-17 09:45 32.732077 -117.176631 12 19ft 2kts
07-Dec-17 09:46 32.731567 -117.176790 325 19ft 3kts
07-Dec-17 09:47 32.730782 -117.175065 191 19ft 0kts
07-Dec-17 09:48 32.730780 -117.175065 191 19ft 0kts
07-Dec-17 09:48 32.730779 -117.175065 191 19ft 0kts
07-Dec-17 09:50 32.730777 -117.175066 191 19ft 0kts
07-Dec-17 09:50 32.730776 -117.175066 191 19ft 0kts
07-Dec-17 09:51 32.731353 -117.180702 285 19ft 109kts
07-Dec-17 09:52 32.749993 -117.229558 303 2076ft 170kts
07-Dec-17 09:53 32.773888 -117.274570 305 5264ft 172kts
07-Dec-17 09:54 32.797976 -117.326072 305 8319ft 180kts
07-Dec-17 09:55 32.819784 -117.375449 303 11107ft 153kts
07-Dec-17 09:56 32.843369 -117.416240 304 12983ft 177kts
07-Dec-17 09:57 32.881439 -117.463607 327 13057ft 212kts
07-Dec-17 09:58 32.928003 -117.492378 330 15027ft 170kts
07-Dec-17 09:59 32.969060 -117.520155 325 16760ft 171kts
07-Dec-17 10:00 33.005184 -117.558921 305 18107ft 185kts
07-Dec-17 10:01 33.042972 -117.608166 312 18141ft 214kts
07-Dec-17 10:02 33.098350 -117.641107 328 18162ft 224kts
07-Dec-17 10:03 33.154127 -117.673147 325 18176ft 221kts
07-Dec-17 10:04 33.209005 -117.708184 325 18194ft 226kts
07-Dec-17 10:05 33.264842 -117.745327 325 18041ft 231kts
07-Dec-17 10:06 33.318484 -117.787258 329 17993ft 229kts
07-Dec-17 10:07 33.371526 -117.828109 331 17991ft 226kts
07-Dec-17 10:08 33.426023 -117.865177 339 17992ft 224kts
07-Dec-17 10:09 33.483373 -117.894837 329 18002ft 227kts
07-Dec-17 10:10 33.542210 -117.924307 333 18016ft 230kts
07-Dec-17 10:11 33.601804 -117.952278 333 18022ft 230kts
07-Dec-17 10:12 33.659913 -117.983077 319 18023ft 226kts
07-Dec-17 10:13 33.712046 -118.025274 331 18045ft 228kts
07-Dec-17 10:14 33.772251 -118.051037 335 18065ft 229kts
07-Dec-17 10:15 33.830426 -118.081288 332 18072ft 227kts
07-Dec-17 10:16 33.887732 -118.113661 331 18070ft 227kts
07-Dec-17 10:17 33.944647 -118.146351 332 18063ft 226kts
07-Dec-17 10:18 34.001676 -118.179176 332 18063ft 226kts
07-Dec-17 10:19 34.058472 -118.211960 332 18064ft 226kts
07-Dec-17 10:20 34.115217 -118.244807 333 18064ft 226kts
07-Dec-17 10:21 34.172187 -118.277784 334 18064ft 226kts
07-Dec-17 10:22 34.228963 -118.310705 334 18064ft 226kts
07-Dec-17 10:23 34.285740 -118.343689 335 18064ft 226kts
07-Dec-17 10:24 34.342739 -118.376839 334 18064ft 227kts
07-Dec-17 10:25 34.399644 -118.410023 334 18064ft 227kts
07-Dec-17 10:26 34.456637 -118.443281 332 18063ft 228kts
07-Dec-17 10:27 34.514597 -118.477192 332 18064ft 232kts
07-Dec-17 10:28 34.567264 -118.507954 327 17520ft 188kts
07-Dec-17 10:29 34.617205 -118.537724 325 15914ft 213kts
07-Dec-17 10:30 34.675331 -118.572199 332 14137ft 237kts
07-Dec-17 10:31 34.735498 -118.609629 328 14145ft 259kts
07-Dec-17 10:32 34.799635 -118.650463 326 14112ft 257kts
07-Dec-17 10:33 34.862512 -118.691015 326 13895ft 251kts
07-Dec-17 10:34 34.922165 -118.729487 326 13988ft 240kts
07-Dec-17 10:35 34.981480 -118.767964 326 13988ft 241kts
07-Dec-17 10:36 35.041832 -118.807119 326 13985ft 251kts
07-Dec-17 10:37 35.105683 -118.848692 330 14011ft 269kts
07-Dec-17 10:38 35.171462 -118.891365 333 14228ft 251kts
07-Dec-17 10:39 35.230079 -118.929628 334 14059ft 229kts
07-Dec-17 10:40 35.285468 -118.965780 331 14037ft 221kts
07-Dec-17 10:41 35.339693 -119.001399 333 14136ft 221kts
07-Dec-17 10:42 35.393812 -119.036911 333 13946ft 216kts
07-Dec-17 10:43 35.444524 -119.070305 332 12381ft 199kts
07-Dec-17 10:44 35.490716 -119.106451 323 10963ft 198kts
07-Dec-17 10:45 35.530807 -119.153595 320 9559ft 203kts
07-Dec-17 10:46 35.571916 -119.204076 318 8186ft 211kts
07-Dec-17 10:47 35.615480 -119.257968 318 8049ft 244kts
07-Dec-17 10:48 35.664074 -119.318163 318 8053ft 249kts
07-Dec-17 10:49 35.712806 -119.378863 318 8054ft 248kts
07-Dec-17 10:50 35.761195 -119.439267 318 8054ft 248kts
07-Dec-17 10:51 35.809737 -119.499996 318 8054ft 248kts
07-Dec-17 10:52 35.858042 -119.560574 318 8054ft 247kts
07-Dec-17 10:53 35.906059 -119.620904 318 8024ft 247kts
07-Dec-17 10:54 35.950681 -119.677334 318 6974ft 211kts
07-Dec-17 10:55 35.990276 -119.727443 318 5870ft 199kts
07-Dec-17 10:56 36.028373 -119.775635 318 4770ft 194kts
07-Dec-17 10:57 36.065732 -119.822826 320 3667ft 188kts
07-Dec-17 10:58 36.106699 -119.860479 329 2576ft 179kts
07-Dec-17 10:59 36.147429 -119.891685 304 1626ft 165kts
07-Dec-17 11:00 36.121730 -119.916468 157 1503ft 161kts
07-Dec-17 11:01 36.085595 -119.895384 154 1420ft 132kts
07-Dec-17 11:02 36.053065 -119.875698 154 1406ft 127kts
07-Dec-17 11:03 36.032439 -119.847071 51 1334ft 124kts
07-Dec-17 11:04 36.061118 -119.856193 332 997ft 111kts
07-Dec-17 11:05 36.088581 -119.871007 333 705ft 109kts
07-Dec-17 11:06 36.114410 -119.885510 333 203ft 87kts
07-Dec-17 11:07 36.122237 -119.890622 156 196ft 0kts
07-Dec-17 11:08 36.122236 -119.890621 156 196ft 0kts
07-Dec-17 11:09 36.122235 -119.890620 156 196ft 0kts
07-Dec-17 11:10 36.122234 -119.890620 156 196ft 0kts
07-Dec-17 11:11 36.122233 -119.890619 156 196ft 0kts
07-Dec-17 11:12 36.122233 -119.890619 156 196ft 0kts
07-Dec-17 11:13 36.122233 -119.890619 156 196ft 0kts
07-Dec-17 11:14 36.122233 -119.890619 156 196ft 0kts
07-Dec-17 11:15 36.122233 -119.890619 156 196ft 0kts
07-Dec-17 11:16 36.122233 -119.890619 156 196ft 0kts
07-Dec-17 11:17 36.122233 -119.890619 156 196ft 0kts
07-Dec-17 11:18 36.122233 -119.890619 156 196ft 0kts
07-Dec-17 11:19 36.122233 -119.890619 156 196ft 0kts
07-Dec-17 11:20 36.122233 -119.890619 156 196ft 0kts
07-Dec-17 11:21 36.122233 -119.890619 156 196ft 0kts
07-Dec-17 11:22 36.122233 -119.890619 156 196ft 0kts

Navigation Log

Ident Type
Flight plan parsing failed, navigation log unavailable